Time;durP1;ratioP1;P1;durP2;ratioP2;P2;SDS_P1;SDS_P2;PMS_P1;PMS_P2;Temp;Humidity;BMP_temperature;BMP_pressure;BME280_temperature;BME280_humidity;BME280_pressure;Samples;Min_cycle;Max_cycle;Signal;HPM_P1;HPM_P2
2023/02/19 00:01:26;;;;;;;20.15;11.65;;;-5.40;96.00;;;;;;5064063;28;20025;-82
2023/02/19 00:03:54;;;;;;;18.52;9.18;;;-5.40;96.10;;;;;;5036302;28;20017;-79
2023/02/19 00:06:22;;;;;;;20.30;10.32;;;-5.40;96.10;;;;;;5035319;28;20493;-83
2023/02/19 00:08:48;;;;;;;19.23;11.68;;;-5.40;96.00;;;;;;5039708;28;20055;-81
2023/02/19 00:11:20;;;;;;;17.25;10.93;;;-5.40;96.20;;;;;;5053434;28;20051;-80
2023/02/19 00:13:49;;;;;;;23.55;11.77;;;-5.40;96.20;;;;;;5056587;28;20128;-81
2023/02/19 00:16:19;;;;;;;16.85;10.57;;;-5.40;96.30;;;;;;5052928;28;20555;-82
2023/02/19 00:18:45;;;;;;;20.42;10.05;;;-5.40;96.30;;;;;;5036920;28;20025;-81
2023/02/19 00:21:11;;;;;;;19.05;11.50;;;-5.40;96.20;;;;;;5043571;28;20052;-82
2023/02/19 00:23:37;;;;;;;23.13;11.40;;;-5.50;96.20;;;;;;5059556;28;20387;-83
2023/02/19 00:26:05;;;;;;;18.70;11.38;;;-5.50;96.20;;;;;;5055801;28;20010;-83
2023/02/19 00:28:31;;;;;;;19.65;10.40;;;-5.50;96.20;;;;;;5035128;28;20040;-81
2023/02/19 00:31:09;;;;;;;21.80;12.05;;;-5.50;96.30;;;;;;5049275;28;20021;-82
2023/02/19 00:33:35;;;;;;;27.23;9.80;;;-5.50;96.20;;;;;;5046989;28;20033;-81
2023/02/19 00:36:03;;;;;;;21.80;11.82;;;-5.50;96.20;;;;;;5036767;28;20017;-82
2023/02/19 00:38:30;;;;;;;25.80;11.38;;;-5.50;96.20;;;;;;5044368;28;20021;-83
2023/02/19 00:40:58;;;;;;;17.17;10.97;;;-5.50;96.40;;;;;;5053876;28;20028;-80
2023/02/19 00:43:23;;;;;;;20.35;12.73;;;-5.40;96.30;;;;;;5039379;28;20250;-82
2023/02/19 00:45:52;;;;;;;18.88;10.27;;;-5.40;96.30;;;;;;5045945;28;20021;-81
2023/02/19 00:48:18;;;;;;;21.25;12.65;;;-5.40;96.30;;;;;;5056981;28;20029;-82
2023/02/19 00:50:44;;;;;;;21.40;11.73;;;-5.40;96.20;;;;;;5058557;28;20025;-83
2023/02/19 00:53:10;;;;;;;20.85;11.93;;;-5.40;96.40;;;;;;5056322;28;20025;-81
2023/02/19 00:55:36;;;;;;;20.95;11.85;;;-5.40;96.30;;;;;;5056366;28;20036;-83
2023/02/19 00:58:02;;;;;;;21.25;12.48;;;-5.50;96.10;;;;;;5057718;28;20519;-82
2023/02/19 01:00:28;;;;;;;22.75;11.73;;;-5.50;96.20;;;;;;5070180;28;20481;-81
2023/02/19 01:02:53;;;;;;;24.23;14.93;;;-5.50;96.30;;;;;;5065212;28;20025;-82
2023/02/19 01:05:22;;;;;;;26.88;15.38;;;-5.50;96.40;;;;;;5042328;28;20020;-79
2023/02/19 01:07:51;;;;;;;23.00;13.63;;;-5.40;96.50;;;;;;5057512;28;20072;-82
2023/02/19 01:10:17;;;;;;;24.08;13.15;;;-5.40;96.50;;;;;;5056773;28;20009;-80
2023/02/19 01:12:46;;;;;;;23.55;14.13;;;-5.40;96.50;;;;;;5057391;28;20049;-80
2023/02/19 01:15:11;;;;;;;28.30;15.52;;;-5.30;96.40;;;;;;5062495;28;20102;-80
2023/02/19 01:17:37;;;;;;;20.73;12.43;;;-5.40;96.30;;;;;;5071245;28;20018;-81
2023/02/19 01:20:03;;;;;;;24.73;12.35;;;-5.40;96.40;;;;;;5075224;28;20028;-82
2023/02/19 01:22:29;;;;;;;22.73;11.00;;;-5.40;96.40;;;;;;5060717;28;20036;-80
2023/02/19 01:24:55;;;;;;;20.73;12.07;;;-5.40;96.50;;;;;;5038297;28;20025;-81
2023/02/19 01:27:21;;;;;;;18.95;12.43;;;-5.30;96.60;;;;;;5056010;28;20060;-80
2023/02/19 01:29:49;;;;;;;25.52;12.57;;;-5.40;96.60;;;;;;5040924;28;20021;-80
2023/02/19 01:32:15;;;;;;;22.60;12.23;;;-5.40;96.70;;;;;;5057442;28;20025;-80
2023/02/19 01:34:44;;;;;;;22.50;12.60;;;-5.40;96.70;;;;;;5058954;28;20100;-82
2023/02/19 01:37:10;;;;;;;22.02;13.30;;;-5.40;96.70;;;;;;5056739;28;20040;-80
2023/02/19 01:39:38;;;;;;;18.42;10.02;;;-5.40;96.70;;;;;;5052383;28;20025;-80
2023/02/19 01:42:05;;;;;;;22.25;13.20;;;-5.40;96.70;;;;;;5057672;28;20029;-81
2023/02/19 01:44:49;;;;;;;20.77;11.40;;;-5.40;96.70;;;;;;5062092;28;20021;-80
2023/02/19 01:47:17;;;;;;;22.30;11.70;;;-5.40;96.70;;;;;;5040739;28;20037;-81
2023/02/19 01:49:53;;;;;;;21.55;11.73;;;-5.40;96.80;;;;;;5062595;28;20478;-82
2023/02/19 01:52:31;;;;;;;18.50;10.30;;;-5.50;96.80;;;;;;5056024;28;20052;-80
2023/02/19 01:54:59;;;;;;;21.70;12.77;;;-5.50;96.80;;;;;;5056019;28;20059;-81
2023/02/19 01:57:30;;;;;;;24.88;13.88;;;-5.50;96.80;;;;;;5054192;28;20025;-81
2023/02/19 02:00:03;;;;;;;20.63;9.15;;;-5.50;96.80;;;;;;5055025;28;20024;-80
2023/02/19 02:02:29;;;;;;;17.08;10.57;;;-5.50;96.70;;;;;;5053506;28;20108;-79
2023/02/19 02:04:59;;;;;;;18.58;9.20;;;-5.60;96.80;;;;;;5057004;28;20057;-81
2023/02/19 02:10:19;;;;;;;19.27;10.68;;;-5.60;97.00;;;;;;5054451;28;20074;-81
2023/02/19 02:12:46;;;;;;;23.75;12.35;;;-5.60;97.00;;;;;;5054072;28;20409;-81
2023/02/19 02:15:13;;;;;;;18.67;11.77;;;-5.60;97.10;;;;;;5054287;28;20052;-81
2023/02/19 02:17:51;;;;;;;17.48;10.52;;;-5.50;97.20;;;;;;5054015;28;20029;-79
2023/02/19 02:20:46;;;;;;;13.95;8.93;;;-5.50;97.10;;;;;;5055226;28;20025;-80
2023/02/19 02:23:40;;;;;;;16.60;9.27;;;-5.50;97.00;;;;;;5053638;28;20378;-81
2023/02/19 02:26:48;;;;;;;20.08;12.15;;;-5.60;97.00;;;;;;5054364;28;20020;-80
2023/02/19 02:29:36;;;;;;;18.63;11.35;;;-5.70;97.00;;;;;;5006419;28;20068;-80
2023/02/19 02:32:29;;;;;;;19.52;12.25;;;-5.80;97.00;;;;;;5055669;28;20036;-81
2023/02/19 02:35:04;;;;;;;15.65;8.65;;;-5.80;97.20;;;;;;5046712;28;20498;-79
2023/02/19 02:37:34;;;;;;;19.42;10.40;;;-5.70;97.10;;;;;;5054050;28;20033;-79
2023/02/19 02:40:01;;;;;;;18.92;11.85;;;-5.80;97.20;;;;;;5037182;28;20593;-79
2023/02/19 02:42:27;;;;;;;13.65;9.98;;;-5.70;97.30;;;;;;5059534;28;20021;-80
2023/02/19 02:47:47;;;;;;;19.47;10.93;;;-5.70;97.30;;;;;;5055980;28;20035;-81
2023/02/19 02:50:24;;;;;;;16.90;8.93;;;-5.80;97.30;;;;;;5048479;28;20069;-82
2023/02/19 02:55:45;;;;;;;18.60;10.90;;;-5.70;97.60;;;;;;5057674;28;20048;-81
2023/02/19 02:58:13;;;;;;;19.58;11.68;;;-5.70;97.60;;;;;;5053842;28;20025;-82
2023/02/19 03:03:29;;;;;;;19.10;9.50;;;-5.70;97.80;;;;;;5052415;28;20032;-82
2023/02/19 03:06:03;;;;;;;18.42;11.70;;;-5.70;97.60;;;;;;5053709;28;20593;-81
2023/02/19 03:09:06;;;;;;;18.55;10.55;;;-5.70;97.70;;;;;;5047532;28;20397;-81
2023/02/19 03:20:22;;;;;;;17.95;10.10;;;-5.60;97.60;;;;;;5054925;28;20095;-81
2023/02/19 03:22:49;;;;;;;17.30;9.05;;;-5.50;97.70;;;;;;5053008;28;20029;-82
2023/02/19 03:28:16;;;;;;;16.02;9.57;;;-5.60;97.70;;;;;;5042840;28;20776;-80
2023/02/19 03:30:46;;;;;;;16.50;9.98;;;-5.50;97.80;;;;;;5051944;28;20482;-81
2023/02/19 03:33:20;;;;;;;18.15;10.80;;;-5.50;97.80;;;;;;5054408;28;20490;-79
2023/02/19 03:35:59;;;;;;;17.63;9.15;;;-5.50;97.90;;;;;;5064325;28;20075;-81
2023/02/19 03:38:51;;;;;;;17.25;11.15;;;-5.50;97.90;;;;;;5067992;28;20032;-80
2023/02/19 03:41:32;;;;;;;16.35;9.35;;;-5.50;97.90;;;;;;5049435;28;20017;-79
2023/02/19 03:44:15;;;;;;;13.98;8.98;;;-5.50;98.00;;;;;;5064249;28;20029;-81
2023/02/19 03:46:52;;;;;;;15.43;9.45;;;-5.50;98.10;;;;;;5043736;28;20550;-81
2023/02/19 03:49:31;;;;;;;14.90;8.27;;;-5.50;98.20;;;;;;5036221;28;20089;-81
2023/02/19 03:52:06;;;;;;;17.48;10.50;;;-5.50;98.20;;;;;;5063400;28;20019;-81
2023/02/19 03:54:51;;;;;;;18.98;11.52;;;-5.50;98.30;;;;;;5056268;28;20028;-81
2023/02/19 03:57:36;;;;;;;14.45;8.98;;;-5.50;98.40;;;;;;5055814;28;20405;-82
2023/02/19 04:00:14;;;;;;;17.80;9.98;;;-5.50;98.50;;;;;;5035045;28;20074;-82
2023/02/19 04:02:48;;;;;;;16.65;8.88;;;-5.40;98.50;;;;;;5052880;28;20389;-81
2023/02/19 04:05:38;;;;;;;15.70;9.85;;;-5.50;98.40;;;;;;5038285;28;20480;-82
2023/02/19 04:08:13;;;;;;;15.68;9.55;;;-5.50;98.50;;;;;;5034422;28;20036;-82
2023/02/19 04:10:39;;;;;;;16.23;9.35;;;-5.50;98.50;;;;;;5052316;28;20427;-82
2023/02/19 04:13:15;;;;;;;15.13;8.43;;;-5.40;98.40;;;;;;5051385;28;20056;-81
2023/02/19 04:15:43;;;;;;;17.13;9.68;;;-5.40;98.40;;;;;;5048875;28;20090;-81
2023/02/19 04:18:15;;;;;;;14.60;9.35;;;-5.40;98.30;;;;;;5055901;28;20044;-81
2023/02/19 04:20:46;;;;;;;16.35;10.30;;;-5.40;98.30;;;;;;5020498;28;20455;-81
2023/02/19 04:23:15;;;;;;;18.08;10.32;;;-5.40;98.60;;;;;;5052418;28;20099;-83
2023/02/19 04:25:44;;;;;;;16.20;9.45;;;-5.40;98.30;;;;;;5056128;28;20021;-80
2023/02/19 04:28:12;;;;;;;14.13;9.38;;;-5.50;98.50;;;;;;5056063;28;20052;-80
2023/02/19 04:30:37;;;;;;;17.70;9.65;;;-5.50;98.50;;;;;;5056126;28;20389;-81
2023/02/19 04:33:03;;;;;;;15.07;8.60;;;-5.50;98.60;;;;;;5040523;28;20032;-82
2023/02/19 04:35:29;;;;;;;15.00;10.15;;;-5.40;98.60;;;;;;5060368;28;20013;-83
2023/02/19 04:37:55;;;;;;;14.63;8.77;;;-5.50;98.60;;;;;;5052604;28;20029;-82
2023/02/19 04:40:21;;;;;;;18.48;9.93;;;-5.50;98.60;;;;;;5046661;28;20492;-80
2023/02/19 04:42:47;;;;;;;16.67;8.70;;;-5.50;98.70;;;;;;5057377;28;20676;-81
2023/02/19 04:45:13;;;;;;;15.82;10.20;;;-5.50;98.80;;;;;;5047896;28;20025;-83
2023/02/19 04:47:39;;;;;;;19.27;11.05;;;-5.50;98.80;;;;;;5057923;28;20037;-82
2023/02/19 04:50:05;;;;;;;16.23;9.18;;;-5.50;99.10;;;;;;5057024;28;20091;-81
2023/02/19 04:52:32;;;;;;;18.80;10.25;;;-5.40;98.90;;;;;;5057881;28;20045;-84
2023/02/19 04:54:57;;;;;;;14.45;10.55;;;-5.40;98.90;;;;;;5040062;28;20025;-82
2023/02/19 04:57:23;;;;;;;19.25;10.52;;;-5.50;98.90;;;;;;5041078;28;20060;-81
2023/02/19 04:59:49;;;;;;;16.38;9.50;;;-5.50;98.90;;;;;;5056702;28;20554;-81
2023/02/19 05:02:15;;;;;;;14.57;8.85;;;-5.50;99.00;;;;;;5055734;28;20036;-80
2023/02/19 05:04:41;;;;;;;16.15;9.63;;;-5.50;99.10;;;;;;5055342;28;20044;-82
2023/02/19 05:07:07;;;;;;;14.43;9.93;;;-5.50;99.40;;;;;;5055337;28;20029;-80
2023/02/19 05:09:33;;;;;;;15.50;9.00;;;-5.50;99.10;;;;;;5055772;28;20028;-81
2023/02/19 05:11:59;;;;;;;15.50;9.45;;;-5.40;99.40;;;;;;5038966;28;20421;-83
2023/02/19 05:14:25;;;;;;;15.88;9.00;;;-5.40;99.10;;;;;;5055848;28;20466;-83
2023/02/19 05:16:50;;;;;;;13.82;8.15;;;-5.40;99.00;;;;;;5054780;28;20420;-82
2023/02/19 05:19:16;;;;;;;17.00;9.75;;;-5.50;99.00;;;;;;5038190;28;20363;-82
2023/02/19 05:21:42;;;;;;;16.50;8.75;;;-5.40;99.00;;;;;;5057279;28;20478;-82
2023/02/19 05:24:08;;;;;;;17.05;9.93;;;-5.40;99.10;;;;;;5047382;28;20048;-82
2023/02/19 05:26:37;;;;;;;18.38;9.82;;;-5.40;99.10;;;;;;5069352;28;20024;-83
2023/02/19 05:29:03;;;;;;;15.60;9.55;;;-5.40;99.00;;;;;;5037829;28;20064;-82
2023/02/19 05:31:29;;;;;;;15.43;8.60;;;-5.40;99.00;;;;;;5056959;28;20021;-81
2023/02/19 05:33:55;;;;;;;16.10;8.32;;;-5.30;99.00;;;;;;5054097;28;20044;-81
2023/02/19 05:36:22;;;;;;;16.63;8.73;;;-5.30;99.10;;;;;;5037118;28;20017;-81
2023/02/19 05:38:52;;;;;;;16.23;8.87;;;-5.30;99.20;;;;;;5054946;28;20029;-83
2023/02/19 05:41:21;;;;;;;15.48;9.25;;;-5.40;99.30;;;;;;5054427;28;20029;-81
2023/02/19 05:43:48;;;;;;;14.43;8.85;;;-5.40;99.50;;;;;;5055007;28;20548;-81
2023/02/19 05:46:18;;;;;;;16.88;8.95;;;-5.40;99.60;;;;;;5036007;28;20025;-81
2023/02/19 05:48:44;;;;;;;19.85;9.70;;;-5.30;99.60;;;;;;5038414;28;20045;-80
2023/02/19 05:51:12;;;;;;;15.40;9.10;;;-5.30;99.70;;;;;;5042938;28;20119;-81
2023/02/19 05:53:39;;;;;;;12.77;8.18;;;-5.20;99.70;;;;;;5055086;28;20348;-80
2023/02/19 05:56:33;;;;;;;12.60;8.07;;;-5.10;99.70;;;;;;5035245;28;20964;-78
2023/02/19 05:59:02;;;;;;;15.57;10.32;;;-5.10;99.70;;;;;;5059504;28;20067;-79
2023/02/19 06:01:29;;;;;;;20.60;9.80;;;-5.10;99.60;;;;;;5058423;28;20029;-80
2023/02/19 06:03:56;;;;;;;15.68;9.10;;;-5.10;99.70;;;;;;5056258;28;20074;-82
2023/02/19 06:06:22;;;;;;;13.75;8.25;;;-5.00;99.70;;;;;;5046318;28;20437;-80
2023/02/19 06:08:49;;;;;;;15.95;8.68;;;-5.00;99.60;;;;;;5049687;28;20033;-79
2023/02/19 06:11:16;;;;;;;15.48;8.35;;;-4.90;99.60;;;;;;5058963;28;20101;-81
2023/02/19 06:13:42;;;;;;;12.15;7.68;;;-4.90;99.50;;;;;;5057403;28;20501;-79
2023/02/19 06:16:08;;;;;;;12.70;6.57;;;-4.90;99.40;;;;;;5057625;28;20477;-82
2023/02/19 06:18:34;;;;;;;16.65;9.55;;;-4.90;99.40;;;;;;5040588;28;20036;-82
2023/02/19 06:21:04;;;;;;;13.27;7.93;;;-4.90;99.50;;;;;;5057563;28;20529;-80
2023/02/19 06:23:31;;;;;;;14.02;8.20;;;-4.90;99.40;;;;;;5064224;28;20021;-82
2023/02/19 06:26:18;;;;;;;14.57;7.18;;;-4.80;99.40;;;;;;5059480;28;20428;-79
2023/02/19 06:28:45;;;;;;;12.38;8.30;;;-4.80;99.50;;;;;;5060719;28;20056;-81
2023/02/19 06:31:11;;;;;;;16.60;8.98;;;-4.80;99.40;;;;;;5051666;28;20025;-81
2023/02/19 06:33:39;;;;;;;16.63;8.45;;;-4.80;99.40;;;;;;5055328;28;20099;-80
2023/02/19 06:36:07;;;;;;;12.68;7.88;;;-4.80;99.40;;;;;;5054533;28;20134;-80
2023/02/19 06:38:33;;;;;;;13.52;8.27;;;-4.80;99.40;;;;;;5045306;28;20014;-80
2023/02/19 06:41:06;;;;;;;11.23;6.35;;;-4.70;99.50;;;;;;5031689;28;20497;-80
2023/02/19 06:43:33;;;;;;;16.75;8.77;;;-4.60;99.50;;;;;;5037274;28;20432;-81
2023/02/19 06:46:00;;;;;;;15.38;7.85;;;-4.60;99.50;;;;;;5054717;28;20035;-78
2023/02/19 06:48:27;;;;;;;12.35;7.80;;;-4.60;99.50;;;;;;5059626;28;20037;-80
2023/02/19 06:50:54;;;;;;;15.30;8.65;;;-4.50;99.60;;;;;;5050821;28;20091;-78
2023/02/19 06:53:20;;;;;;;15.15;8.77;;;-4.50;99.60;;;;;;5060740;28;20037;-80
2023/02/19 06:56:01;;;;;;;12.52;7.50;;;-4.40;99.50;;;;;;5063409;28;20361;-82
2023/02/19 06:58:27;;;;;;;15.85;8.00;;;-4.50;99.60;;;;;;5070564;28;20029;-82
2023/02/19 07:00:54;;;;;;;12.07;7.77;;;-4.40;99.40;;;;;;5028459;28;20035;-83
2023/02/19 07:03:20;;;;;;;16.02;9.07;;;-4.40;99.30;;;;;;5056499;28;20025;-81
2023/02/19 07:05:47;;;;;;;12.98;7.78;;;-4.30;99.30;;;;;;5055802;28;20386;-83
2023/02/19 07:08:13;;;;;;;18.15;10.65;;;-4.30;99.30;;;;;;5044354;28;20042;-81
2023/02/19 07:10:39;;;;;;;13.23;7.93;;;-4.20;99.30;;;;;;5058080;28;20017;-83
2023/02/19 07:13:05;;;;;;;16.00;8.45;;;-4.20;99.30;;;;;;5062237;28;20041;-82
2023/02/19 07:15:31;;;;;;;14.32;8.68;;;-4.10;99.40;;;;;;5045637;28;20048;-80
2023/02/19 07:18:00;;;;;;;11.27;8.20;;;-4.10;99.30;;;;;;5043229;28;20052;-79
2023/02/19 07:20:26;;;;;;;14.48;8.45;;;-4.10;99.30;;;;;;5058463;28;20428;-79
2023/02/19 07:22:53;;;;;;;14.68;8.75;;;-4.10;99.30;;;;;;5048250;28;20098;-81
2023/02/19 07:25:22;;;;;;;12.18;7.47;;;-4.10;99.10;;;;;;5062289;28;20017;-80
2023/02/19 07:27:48;;;;;;;20.35;10.10;;;-4.00;99.00;;;;;;5062479;28;20033;-80
2023/02/19 07:30:16;;;;;;;13.02;8.65;;;-4.00;98.80;;;;;;5048679;28;20089;-79
2023/02/19 07:32:44;;;;;;;12.75;9.15;;;-4.00;98.40;;;;;;4954770;28;20042;-80
2023/02/19 07:35:10;;;;;;;16.23;7.53;;;-4.00;98.30;;;;;;5003142;28;20104;-80
2023/02/19 07:37:52;;;;;;;13.13;8.00;;;-4.10;98.30;;;;;;5004656;28;20520;-81
2023/02/19 07:40:24;;;;;;;15.48;9.45;;;-4.10;98.20;;;;;;5005938;28;20038;-81
2023/02/19 07:42:50;;;;;;;17.45;9.63;;;-4.20;98.00;;;;;;5000326;28;20034;-78
2023/02/19 07:45:16;;;;;;;13.40;8.35;;;-4.30;98.10;;;;;;5002213;28;20030;-81
2023/02/19 07:47:42;;;;;;;14.20;8.75;;;-4.40;98.20;;;;;;4999796;28;20069;-81
2023/02/19 07:50:11;;;;;;;14.53;8.10;;;-4.30;98.20;;;;;;5001526;28;20031;-81
2023/02/19 07:52:40;;;;;;;14.57;8.55;;;-4.30;98.10;;;;;;5002451;28;20062;-81
2023/02/19 07:55:09;;;;;;;13.75;9.60;;;-4.30;98.20;;;;;;4983742;28;20403;-79
2023/02/19 07:57:35;;;;;;;14.50;8.88;;;-4.20;98.40;;;;;;5003276;28;20062;-79
2023/02/19 08:00:01;;;;;;;14.90;8.10;;;-4.10;98.70;;;;;;4997560;28;20038;-80
2023/02/19 08:05:15;;;;;;;13.18;8.68;;;-4.10;98.80;;;;;;5048832;28;20032;-82
2023/02/19 08:07:43;;;;;;;17.43;10.43;;;-4.10;99.10;;;;;;5059037;28;20606;-81
2023/02/19 08:15:40;;;;;;;14.85;8.50;;;-3.80;99.00;;;;;;5063221;28;20028;-82
2023/02/19 08:18:08;;;;;;;12.77;9.18;;;-3.80;98.90;;;;;;5071042;28;20025;-79
2023/02/19 08:20:37;;;;;;;19.90;9.70;;;-3.80;99.00;;;;;;5061449;28;20056;-82
2023/02/19 08:23:03;;;;;;;15.82;9.18;;;-3.70;98.50;;;;;;5064345;28;20025;-79
2023/02/19 08:25:30;;;;;;;13.82;8.95;;;-3.70;98.40;;;;;;5033558;28;20029;-83
2023/02/19 08:27:55;;;;;;;14.23;8.63;;;-3.60;98.30;;;;;;5063684;28;20036;-82
2023/02/19 08:30:46;;;;;;;17.08;8.98;;;-3.60;98.40;;;;;;5069692;28;20016;-82
2023/02/19 08:33:21;;;;;;;14.40;9.82;;;-3.50;98.10;;;;;;5062681;28;20076;-81
2023/02/19 08:35:47;;;;;;;16.15;9.95;;;-3.40;97.70;;;;;;5051125;28;20088;-81
2023/02/19 08:38:15;;;;;;;15.40;8.48;;;-3.30;97.80;;;;;;5054359;28;20050;-81
2023/02/19 08:40:41;;;;;;;12.05;8.55;;;-3.30;97.90;;;;;;5067574;28;20021;-81
2023/02/19 08:43:12;;;;;;;13.43;10.10;;;-3.30;97.90;;;;;;5042596;28;20029;-80
2023/02/19 08:45:40;;;;;;;14.38;9.27;;;-3.20;98.00;;;;;;5071343;28;20017;-82
2023/02/19 08:48:07;;;;;;;14.75;9.77;;;-3.30;98.00;;;;;;5068923;28;20029;-81
2023/02/19 08:50:33;;;;;;;13.90;8.60;;;-3.30;98.20;;;;;;5058885;28;20017;-81
2023/02/19 08:53:00;;;;;;;14.93;8.45;;;-3.40;98.30;;;;;;5041378;28;20025;-81
2023/02/19 08:55:26;;;;;;;13.47;8.93;;;-3.40;98.40;;;;;;5066812;28;20025;-81
2023/02/19 08:57:52;;;;;;;14.70;9.02;;;-3.40;98.40;;;;;;5078285;28;20037;-81
2023/02/19 09:00:20;;;;;;;16.95;9.23;;;-3.50;98.50;;;;;;5073798;28;20033;-81
2023/02/19 09:02:46;;;;;;;18.75;10.32;;;-3.40;98.50;;;;;;5064742;28;20021;-81
2023/02/19 09:05:13;;;;;;;15.30;10.20;;;-3.50;98.30;;;;;;5051302;28;20021;-82
2023/02/19 09:07:40;;;;;;;14.07;9.60;;;-3.40;98.00;;;;;;5072369;28;20048;-82
2023/02/19 09:10:06;;;;;;;16.83;10.40;;;-3.40;98.00;;;;;;5048090;28;20029;-81
2023/02/19 09:12:32;;;;;;;14.57;7.33;;;-3.40;98.00;;;;;;5067308;28;20071;-81
2023/02/19 09:15:02;;;;;;;15.13;9.30;;;-3.40;98.20;;;;;;5021233;28;20286;-79
2023/02/19 09:17:29;;;;;;;14.00;9.63;;;-3.40;98.60;;;;;;5018790;28;20408;-80
2023/02/19 09:19:55;;;;;;;19.15;11.02;;;-3.50;98.70;;;;;;5019853;28;20948;-81
2023/02/19 09:22:21;;;;;;;12.43;8.00;;;-3.50;98.80;;;;;;5020016;28;20119;-82
2023/02/19 09:24:47;;;;;;;17.80;10.25;;;-3.50;98.60;;;;;;5019615;28;20030;-81
2023/02/19 09:27:18;;;;;;;13.23;8.38;;;-3.50;98.60;;;;;;5019160;28;20049;-81
2023/02/19 09:29:44;;;;;;;17.45;9.20;;;-3.50;98.70;;;;;;5021219;28;20030;-81
2023/02/19 09:32:10;;;;;;;19.63;9.18;;;-3.50;98.70;;;;;;5020644;28;20076;-82
2023/02/19 09:34:37;;;;;;;14.32;8.63;;;-3.50;98.80;;;;;;5020373;28;20030;-80
2023/02/19 09:37:05;;;;;;;21.83;11.32;;;-3.50;98.90;;;;;;5011596;28;20039;-80
2023/02/19 09:39:32;;;;;;;17.88;10.88;;;-3.50;98.90;;;;;;5022755;28;20038;-82
2023/02/19 09:42:03;;;;;;;14.70;9.23;;;-3.50;98.80;;;;;;5002325;28;20118;-80
2023/02/19 09:44:37;;;;;;;18.20;10.07;;;-3.40;98.80;;;;;;5018627;28;20030;-79
2023/02/19 09:47:12;;;;;;;16.17;10.40;;;-3.30;98.80;;;;;;5026759;28;20129;-82
2023/02/19 09:49:48;;;;;;;19.20;11.02;;;-3.30;98.70;;;;;;5013196;28;20065;-81
2023/02/19 09:52:51;;;;;;;21.83;13.02;;;-3.20;98.40;;;;;;5042975;28;20063;-82
2023/02/19 09:55:35;;;;;;;17.90;10.88;;;-3.00;98.20;;;;;;5055322;28;20029;-81
2023/02/19 09:58:16;;;;;;;17.42;10.48;;;-2.90;98.10;;;;;;5064452;28;20029;-81
2023/02/19 10:00:47;;;;;;;20.08;9.45;;;-2.90;97.90;;;;;;5038825;28;20028;-82
2023/02/19 10:03:29;;;;;;;15.70;10.13;;;-2.80;97.50;;;;;;5048732;28;20029;-80
2023/02/19 10:05:57;;;;;;;18.58;9.85;;;-2.80;97.10;;;;;;5068738;28;20025;-82
2023/02/19 10:08:24;;;;;;;20.85;11.82;;;-2.80;96.90;;;;;;5075199;28;20033;-81
2023/02/19 10:10:51;;;;;;;20.73;10.00;;;-2.80;97.00;;;;;;5073300;28;20405;-83
2023/02/19 10:13:22;;;;;;;;;;;-2.80;96.90;;;;;;5049340;28;20520;-83
2023/02/19 10:15:55;;;;;;;17.70;10.30;;;-2.70;97.00;;;;;;5047023;28;19983;-83
2023/02/19 10:18:28;;;;;;;11.63;7.93;;;-2.70;97.50;;;;;;5043451;28;20021;-82
2023/02/19 10:20:55;;;;;;;18.08;11.52;;;-2.80;97.60;;;;;;5024911;28;20036;-81
2023/02/19 10:23:23;;;;;;;18.90;11.27;;;-2.90;98.00;;;;;;5021484;28;20022;-80
2023/02/19 10:25:57;;;;;;;19.77;12.88;;;-2.90;98.10;;;;;;5041963;28;20026;-80
2023/02/19 10:28:30;;;;;;;19.05;9.77;;;-3.00;98.10;;;;;;5054941;28;20040;-80
2023/02/19 10:31:01;;;;;;;15.02;9.60;;;-2.90;98.00;;;;;;5041443;28;20390;-79
2023/02/19 10:33:27;;;;;;;15.15;10.23;;;-2.90;98.20;;;;;;5024497;28;20025;-81
2023/02/19 10:35:57;;;;;;;18.65;11.07;;;-2.90;98.20;;;;;;5053661;28;20025;-81
2023/02/19 10:38:31;;;;;;;17.40;10.95;;;-2.90;98.00;;;;;;5031622;28;20045;-80
2023/02/19 10:41:13;;;;;;;18.15;10.15;;;-2.80;98.00;;;;;;5018877;28;20059;-79
2023/02/19 10:43:52;;;;;;;12.38;8.48;;;-2.70;98.10;;;;;;5042105;28;20037;-80
2023/02/19 10:46:42;;;;;;;15.82;10.18;;;-2.60;98.30;;;;;;5037619;28;20076;-80
2023/02/19 10:49:22;;;;;;;20.33;11.82;;;-2.60;98.20;;;;;;5032341;28;20402;-79
2023/02/19 10:51:49;;;;;;;16.65;10.23;;;-2.60;97.90;;;;;;5033672;28;20014;-81
2023/02/19 10:54:18;;;;;;;15.23;9.77;;;-2.60;97.50;;;;;;5022573;28;20025;-80
2023/02/19 10:56:44;;;;;;;16.35;10.95;;;-2.60;97.90;;;;;;5026032;28;20021;-80
2023/02/19 10:59:28;;;;;;;15.95;9.95;;;-2.60;97.90;;;;;;5037659;28;20803;-80
2023/02/19 11:01:59;;;;;;;16.63;10.68;;;-2.60;97.80;;;;;;5043420;28;20017;-80
2023/02/19 11:04:28;;;;;;;16.75;11.02;;;-2.70;97.90;;;;;;5033933;28;20034;-80
2023/02/19 11:06:56;;;;;;;16.02;9.95;;;-2.70;98.10;;;;;;5023157;28;20032;-81
2023/02/19 11:09:24;;;;;;;;;;;-2.70;98.00;;;;;;5042161;28;20021;-84
2023/02/19 11:11:52;;;;;;;15.27;10.23;;;-2.60;98.00;;;;;;5040660;28;20023;-82
2023/02/19 11:14:22;;;;;;;18.02;12.27;;;-2.60;98.10;;;;;;5045062;28;20039;-82
2023/02/19 11:16:59;;;;;;;18.77;10.70;;;-2.50;98.30;;;;;;5039914;28;20029;-80
2023/02/19 11:19:41;;;;;;;18.73;11.05;;;-2.40;98.60;;;;;;5038818;28;20057;-81
2023/02/19 11:22:39;;;;;;;17.48;11.07;;;-2.20;98.70;;;;;;5040045;28;20033;-81
2023/02/19 11:25:14;;;;;;;18.90;12.18;;;-2.00;98.00;;;;;;5033292;28;20075;-81
2023/02/19 11:28:15;;;;;;;19.92;11.13;;;-1.90;97.20;;;;;;5044646;28;20037;-77
2023/02/19 11:30:43;;;;;;;17.83;9.73;;;-1.80;97.40;;;;;;5050874;28;20551;-78
2023/02/19 11:33:15;;;;;;;15.13;10.07;;;-1.80;97.30;;;;;;5051384;28;20029;-77
2023/02/19 11:35:46;;;;;;;15.43;9.35;;;-1.90;97.40;;;;;;5041363;28;20517;-79
2023/02/19 11:38:14;;;;;;;18.83;10.18;;;-2.00;97.60;;;;;;5047112;28;20022;-81
2023/02/19 11:40:56;;;;;;;27.98;18.33;;;-2.20;97.50;;;;;;5037280;28;20017;-82
2023/02/19 11:43:55;;;;;;;17.05;10.77;;;-2.30;97.50;;;;;;5023887;28;20045;-80
2023/02/19 11:46:39;;;;;;;16.45;9.52;;;-2.40;97.10;;;;;;5022874;28;20417;-82
2023/02/19 11:49:42;;;;;;;16.80;10.82;;;-2.50;97.70;;;;;;5042058;28;20079;-82
2023/02/19 11:52:24;;;;;;;17.73;9.60;;;-2.60;97.90;;;;;;5029084;28;20108;-83
2023/02/19 11:55:16;;;;;;;18.15;10.38;;;-2.70;98.00;;;;;;5022378;28;20025;-83
2023/02/19 11:58:02;;;;;;;16.10;10.35;;;-2.80;98.10;;;;;;5039955;28;20025;-85
2023/02/19 12:00:44;;;;;;;14.30;9.68;;;-2.90;98.00;;;;;;5038203;28;20085;-79
2023/02/19 12:03:49;;;;;;;20.80;11.88;;;-2.90;98.10;;;;;;5037312;28;20060;-82
2023/02/19 12:06:26;;;;;;;18.73;11.98;;;-2.90;98.00;;;;;;4985684;28;20034;-81
2023/02/19 12:09:11;;;;;;;19.98;11.75;;;-2.80;97.60;;;;;;5037433;28;20033;-80
2023/02/19 12:11:59;;;;;;;17.42;10.32;;;-2.80;97.50;;;;;;5018858;28;20118;-83
2023/02/19 12:14:41;;;;;;;21.60;11.25;;;-2.80;97.50;;;;;;5061261;28;20079;-80
2023/02/19 12:17:44;;;;;;;19.40;12.50;;;-2.70;97.10;;;;;;5038048;28;20028;-83
2023/02/19 12:20:16;;;;;;;19.67;11.20;;;-2.70;96.90;;;;;;5034014;28;20022;-79
2023/02/19 12:22:54;;;;;;;18.23;12.55;;;-2.70;96.90;;;;;;5056001;28;20061;-82
2023/02/19 12:25:45;;;;;;;19.27;11.38;;;-2.70;96.90;;;;;;5047926;28;20021;-81
2023/02/19 12:28:43;;;;;;;16.73;10.07;;;-2.70;97.00;;;;;;5057685;28;20029;-81
2023/02/19 12:31:33;;;;;;;17.30;10.75;;;-2.80;97.70;;;;;;5014629;28;20025;-81
2023/02/19 12:34:27;;;;;;;18.23;12.00;;;-2.90;97.50;;;;;;5052861;28;20504;-81
2023/02/19 12:37:17;;;;;;;22.63;11.40;;;-3.00;97.30;;;;;;5056528;28;20028;-79
2023/02/19 12:40:11;;;;;;;20.20;12.05;;;-2.90;97.50;;;;;;5050103;28;20024;-77
2023/02/19 12:42:46;;;;;;;19.70;11.70;;;-2.90;97.20;;;;;;5056645;28;20025;-79
2023/02/19 12:45:28;;;;;;;16.70;10.93;;;-2.80;97.30;;;;;;5047669;28;20041;-79
2023/02/19 12:48:19;;;;;;;16.00;10.27;;;-2.80;97.30;;;;;;5057999;28;20508;-79
2023/02/19 12:50:51;;;;;;;17.33;9.77;;;-2.80;97.10;;;;;;5051529;28;20052;-81
2023/02/19 12:53:46;;;;;;;17.33;10.20;;;-2.80;97.00;;;;;;5053744;28;20470;-80
2023/02/19 12:56:37;;;;;;;14.15;9.00;;;-2.90;96.90;;;;;;5032613;28;20036;-79
2023/02/19 12:59:17;;;;;;;15.55;8.85;;;-2.90;97.30;;;;;;5049384;28;20036;-80
2023/02/19 13:02:18;;;;;;;15.90;9.30;;;-3.00;97.20;;;;;;5060731;28;20028;-79
2023/02/19 13:05:09;;;;;;;17.83;9.50;;;-3.00;97.20;;;;;;5051097;28;20103;-80
2023/02/19 13:07:55;;;;;;;16.38;9.13;;;-3.10;97.40;;;;;;5051855;28;20079;-78
2023/02/19 13:10:29;;;;;;;20.25;12.50;;;-3.10;97.60;;;;;;5058948;28;20060;-79
2023/02/19 13:13:00;;;;;;;19.33;12.00;;;-3.20;97.50;;;;;;5060441;28;20049;-79
2023/02/19 13:15:40;;;;;;;13.98;8.85;;;-3.20;97.10;;;;;;5064490;28;20123;-81
2023/02/19 13:18:17;;;;;;;14.90;10.02;;;-3.20;97.50;;;;;;5047874;28;20021;-80
2023/02/19 13:20:43;;;;;;;;;;;-3.30;97.60;;;;;;5063813;28;20083;-79
2023/02/19 13:26:49;;;;;;;13.70;8.43;;;-3.40;98.00;;;;;;5056970;28;20110;-82
2023/02/19 13:29:24;;;;;;;19.02;10.77;;;-3.40;98.00;;;;;;5032794;28;20048;-81
2023/02/19 13:32:03;;;;;;;16.13;9.38;;;-3.50;98.40;;;;;;5004187;28;20040;-80
2023/02/19 13:34:46;;;;;;;21.90;12.18;;;-3.50;98.80;;;;;;5023052;28;20571;-82